sensor_id;sensor_type;location;lat;lon;timestamp;pressure;altitude;pressure_sealevel;temperature;humidity
4745;BME280;2386;42.138;24.746;2023-06-10T10:36:57;98972.38;;;29.24;47.80
4745;BME280;2386;42.138;24.746;2023-06-10T10:39:23;98974.13;;;29.32;46.52
4745;BME280;2386;42.138;24.746;2023-06-10T10:41:50;98973.72;;;29.53;47.58
4745;BME280;2386;42.138;24.746;2023-06-10T10:44:16;98970.06;;;29.75;47.11
4745;BME280;2386;42.138;24.746;2023-06-10T10:46:49;98973.84;;;29.86;46.01
4745;BME280;2386;42.138;24.746;2023-06-10T10:49:16;98970.38;;;29.93;46.37
4745;BME280;2386;42.138;24.746;2023-06-10T10:52:11;98978.06;;;29.99;46.78
4745;BME280;2386;42.138;24.746;2023-06-10T10:54:37;98963.34;;;30.02;46.12
4745;BME280;2386;42.138;24.746;2023-06-10T10:57:19;98963.41;;;30.06;46.03
4745;BME280;2386;42.138;24.746;2023-06-10T10:59:55;98965.06;;;30.11;45.81
4745;BME280;2386;42.138;24.746;2023-06-10T11:02:34;98965.06;;;30.11;45.03
4745;BME280;2386;42.138;24.746;2023-06-10T11:05:01;98962.72;;;29.90;44.78
4745;BME280;2386;42.138;24.746;2023-06-10T11:07:29;98968.47;;;29.74;43.90
4745;BME280;2386;42.138;24.746;2023-06-10T11:10:02;98967.66;;;29.73;46.11
4745;BME280;2386;42.138;24.746;2023-06-10T11:12:49;98965.16;;;29.65;46.22
4745;BME280;2386;42.138;24.746;2023-06-10T11:15:29;98957.81;;;29.57;47.35
4745;BME280;2386;42.138;24.746;2023-06-10T11:23:07;98953.59;;;29.01;46.52
4745;BME280;2386;42.138;24.746;2023-06-10T11:25:39;98937.19;;;29.00;46.32
4745;BME280;2386;42.138;24.746;2023-06-10T11:28:27;98934.53;;;29.07;46.80
4745;BME280;2386;42.138;24.746;2023-06-10T11:30:57;98947.59;;;29.22;46.47
4745;BME280;2386;42.138;24.746;2023-06-10T11:33:23;98939.66;;;29.24;45.00
4745;BME280;2386;42.138;24.746;2023-06-10T11:35:50;98946.97;;;29.32;45.18
4745;BME280;2386;42.138;24.746;2023-06-10T11:38:15;98939.75;;;29.51;44.43
4745;BME280;2386;42.138;24.746;2023-06-10T11:40:47;98940.63;;;29.81;43.63
4745;BME280;2386;42.138;24.746;2023-06-10T11:43:13;98937.56;;;30.16;43.73
4745;BME280;2386;42.138;24.746;2023-06-10T11:45:41;98939.56;;;30.76;42.84
4745;BME280;2386;42.138;24.746;2023-06-10T11:48:06;98933.91;;;31.50;41.19
4745;BME280;2386;42.138;24.746;2023-06-10T11:50:32;98940.97;;;32.36;38.82
4745;BME280;2386;42.138;24.746;2023-06-10T11:52:58;98926.06;;;33.57;38.48
4745;BME280;2386;42.138;24.746;2023-06-10T11:55:44;98932.06;;;35.11;35.08
4745;BME280;2386;42.138;24.746;2023-06-10T11:58:17;98931.47;;;35.93;33.18
4745;BME280;2386;42.138;24.746;2023-06-10T12:00:53;98922.50;;;36.01;32.43
4745;BME280;2386;42.138;24.746;2023-06-10T12:03:19;98924.34;;;36.52;32.78
4745;BME280;2386;42.138;24.746;2023-06-10T12:08:23;98928.56;;;38.45;28.32
4745;BME280;2386;42.138;24.746;2023-06-10T12:10:49;98932.84;;;38.73;27.69
4745;BME280;2386;42.138;24.746;2023-06-10T12:13:15;98924.59;;;39.35;27.13
4745;BME280;2386;42.138;24.746;2023-06-10T12:15:40;98914.41;;;39.70;27.79
4745;BME280;2386;42.138;24.746;2023-06-10T12:18:05;98917.03;;;38.92;26.95
4745;BME280;2386;42.138;24.746;2023-06-10T12:20:32;98912.16;;;37.70;28.63
4745;BME280;2386;42.138;24.746;2023-06-10T12:23:08;98911.06;;;37.88;30.38
4745;BME280;2386;42.138;24.746;2023-06-10T12:25:34;98916.06;;;38.43;30.35
4745;BME280;2386;42.138;24.746;2023-06-10T12:27:59;98912.91;;;37.74;30.61
4745;BME280;2386;42.138;24.746;2023-06-10T12:30:26;98906.28;;;35.12;32.92
4745;BME280;2386;42.138;24.746;2023-06-10T12:32:52;98901.75;;;34.52;34.45
4745;BME280;2386;42.138;24.746;2023-06-10T12:35:21;98901.06;;;32.85;37.14
4745;BME280;2386;42.138;24.746;2023-06-10T12:38:02;98901.03;;;32.78;38.44
4745;BME280;2386;42.138;24.746;2023-06-10T12:40:34;98898.91;;;31.77;38.57
4745;BME280;2386;42.138;24.746;2023-06-10T12:43:01;98899.16;;;32.20;41.00
4745;BME280;2386;42.138;24.746;2023-06-10T12:48:16;98884.78;;;35.77;35.91
4745;BME280;2386;42.138;24.746;2023-06-10T12:50:42;98885.50;;;36.60;32.12
4745;BME280;2386;42.138;24.746;2023-06-10T12:53:09;98889.19;;;38.31;30.08
4745;BME280;2386;42.138;24.746;2023-06-10T12:55:34;98880.22;;;38.13;29.05
4745;BME280;2386;42.138;24.746;2023-06-10T12:58:00;98880.22;;;39.41;28.51
4745;BME280;2386;42.138;24.746;2023-06-10T13:00:27;98877.63;;;40.53;27.33
4745;BME280;2386;42.138;24.746;2023-06-10T13:02:56;98886.63;;;41.66;27.23
4745;BME280;2386;42.138;24.746;2023-06-10T13:05:21;98885.22;;;42.40;25.43
4745;BME280;2386;42.138;24.746;2023-06-10T13:07:47;98885.69;;;43.22;24.48
4745;BME280;2386;42.138;24.746;2023-06-10T13:10:16;98886.38;;;43.26;23.74
4745;BME280;2386;42.138;24.746;2023-06-10T13:12:45;98887.75;;;43.21;23.68
4745;BME280;2386;42.138;24.746;2023-06-10T13:15:12;98875.16;;;43.41;23.00
4745;BME280;2386;42.138;24.746;2023-06-10T13:17:38;98888.69;;;43.58;22.58
4745;BME280;2386;42.138;24.746;2023-06-10T13:20:05;98885.56;;;43.75;22.65
4745;BME280;2386;42.138;24.746;2023-06-10T13:22:34;98882.06;;;43.71;22.10
4745;BME280;2386;42.138;24.746;2023-06-10T13:25:05;98873.91;;;43.02;22.52
4745;BME280;2386;42.138;24.746;2023-06-10T13:27:33;98879.72;;;41.54;23.30
4745;BME280;2386;42.138;24.746;2023-06-10T13:29:59;98877.28;;;39.93;24.74
4745;BME280;2386;42.138;24.746;2023-06-10T13:32:25;98863.53;;;39.92;24.62
4745;BME280;2386;42.138;24.746;2023-06-10T13:34:50;98882.75;;;40.58;24.32
4745;BME280;2386;42.138;24.746;2023-06-10T13:37:17;98863.19;;;41.49;22.96
4745;BME280;2386;42.138;24.746;2023-06-10T13:39:43;98868.97;;;41.71;22.92
4745;BME280;2386;42.138;24.746;2023-06-10T13:42:09;98875.16;;;42.04;23.27
4745;BME280;2386;42.138;24.746;2023-06-10T13:44:34;98870.09;;;41.74;23.69
4745;BME280;2386;42.138;24.746;2023-06-10T13:50:23;98864.75;;;42.10;23.15
4745;BME280;2386;42.138;24.746;2023-06-10T13:52:48;98866.84;;;42.41;22.79
4745;BME280;2386;42.138;24.746;2023-06-10T13:55:19;98879.16;;;41.47;23.39
4745;BME280;2386;42.138;24.746;2023-06-10T13:57:46;98863.13;;;40.06;24.56
4745;BME280;2386;42.138;24.746;2023-06-10T14:00:14;98842.63;;;39.21;25.63
4745;BME280;2386;42.138;24.746;2023-06-10T14:02:40;98856.75;;;38.52;27.03
4745;BME280;2386;42.138;24.746;2023-06-10T14:05:06;98843.78;;;37.92;27.40
4745;BME280;2386;42.138;24.746;2023-06-10T14:07:33;98847.28;;;37.33;28.93
4745;BME280;2386;42.138;24.746;2023-06-10T14:10:03;98849.84;;;37.24;29.11
4745;BME280;2386;42.138;24.746;2023-06-10T14:12:29;98833.03;;;37.13;28.97
4745;BME280;2386;42.138;24.746;2023-06-10T14:14:54;98832.09;;;38.09;27.10
4745;BME280;2386;42.138;24.746;2023-06-10T14:17:20;98838.75;;;38.62;27.18
4745;BME280;2386;42.138;24.746;2023-06-10T14:19:46;98843.97;;;38.24;27.15
4745;BME280;2386;42.138;24.746;2023-06-10T14:22:12;98838.41;;;37.31;28.21
4745;BME280;2386;42.138;24.746;2023-06-10T14:24:37;98845.91;;;36.33;29.46
4745;BME280;2386;42.138;24.746;2023-06-10T14:30:25;98821.13;;;37.48;27.94
4745;BME280;2386;42.138;24.746;2023-06-10T14:32:50;98839.19;;;38.61;27.57
4745;BME280;2386;42.138;24.746;2023-06-10T14:35:29;98836.84;;;39.57;25.62
4745;BME280;2386;42.138;24.746;2023-06-10T14:37:55;98831.19;;;40.15;25.00
4745;BME280;2386;42.138;24.746;2023-06-10T14:40:20;98826.22;;;40.31;24.36
4745;BME280;2386;42.138;24.746;2023-06-10T14:42:48;98842.13;;;40.16;24.08
4745;BME280;2386;42.138;24.746;2023-06-10T14:48:35;98823.75;;;37.59;27.58
4745;BME280;2386;42.138;24.746;2023-06-10T14:51:01;98805.59;;;37.57;27.41
4745;BME280;2386;42.138;24.746;2023-06-10T14:53:27;98826.91;;;38.28;26.54
4745;BME280;2386;42.138;24.746;2023-06-10T14:59:17;98829.59;;;40.14;23.89
4745;BME280;2386;42.138;24.746;2023-06-10T15:01:43;98822.22;;;40.70;23.13
4745;BME280;2386;42.138;24.746;2023-06-10T15:04:14;98821.72;;;41.48;22.74
4745;BME280;2386;42.138;24.746;2023-06-10T15:06:52;98828.97;;;42.40;21.59
4745;BME280;2386;42.138;24.746;2023-06-10T15:09:24;98824.88;;;42.72;21.28
4745;BME280;2386;42.138;24.746;2023-06-10T15:15:15;98810.75;;;41.94;21.30
4745;BME280;2386;42.138;24.746;2023-06-10T15:18:06;98815.03;;;40.41;22.55
4745;BME280;2386;42.138;24.746;2023-06-10T15:21:09;98819.19;;;38.48;25.04
4745;BME280;2386;42.138;24.746;2023-06-10T15:24:12;98813.00;;;36.77;26.47
4745;BME280;2386;42.138;24.746;2023-06-10T15:26:38;98812.03;;;35.58;27.27
4745;BME280;2386;42.138;24.746;2023-06-10T15:29:06;98813.44;;;35.36;28.75
4745;BME280;2386;42.138;24.746;2023-06-10T15:31:32;98807.03;;;34.83;29.52
4745;BME280;2386;42.138;24.746;2023-06-10T15:34:02;98812.44;;;34.49;29.96
4745;BME280;2386;42.138;24.746;2023-06-10T15:36:31;98807.06;;;33.85;31.24
4745;BME280;2386;42.138;24.746;2023-06-10T15:39:05;98804.72;;;33.06;31.65
4745;BME280;2386;42.138;24.746;2023-06-10T15:41:38;98808.72;;;32.83;32.68
4745;BME280;2386;42.138;24.746;2023-06-10T15:44:04;98801.41;;;32.43;34.46
4745;BME280;2386;42.138;24.746;2023-06-10T15:46:30;98811.28;;;32.09;34.59
4745;BME280;2386;42.138;24.746;2023-06-10T15:48:59;98812.63;;;31.60;34.34
4745;BME280;2386;42.138;24.746;2023-06-10T15:51:29;98803.19;;;31.31;34.28
4745;BME280;2386;42.138;24.746;2023-06-10T15:53:55;98808.34;;;31.22;35.28
4745;BME280;2386;42.138;24.746;2023-06-10T15:56:23;98807.94;;;31.16;36.29
4745;BME280;2386;42.138;24.746;2023-06-10T15:58:51;98818.75;;;30.77;36.72
4745;BME280;2386;42.138;24.746;2023-06-10T16:01:34;98817.13;;;30.76;36.62
4745;BME280;2386;42.138;24.746;2023-06-10T16:04:10;98823.41;;;30.62;37.05
4745;BME280;2386;42.138;24.746;2023-06-10T16:06:36;98826.75;;;30.42;37.62
4745;BME280;2386;42.138;24.746;2023-06-10T16:09:05;98817.75;;;29.95;38.02
4745;BME280;2386;42.138;24.746;2023-06-10T16:11:31;98806.16;;;29.93;38.88
4745;BME280;2386;42.138;24.746;2023-06-10T16:13:57;98812.81;;;29.85;39.38
4745;BME280;2386;42.138;24.746;2023-06-10T16:16:24;98812.72;;;29.78;39.72
4745;BME280;2386;42.138;24.746;2023-06-10T16:18:57;98809.44;;;29.69;40.08
4745;BME280;2386;42.138;24.746;2023-06-10T16:21:30;98808.16;;;29.63;39.93
4745;BME280;2386;42.138;24.746;2023-06-10T16:24:02;98814.44;;;29.56;40.65
4745;BME280;2386;42.138;24.746;2023-06-10T16:26:28;98813.97;;;29.51;41.07
4745;BME280;2386;42.138;24.746;2023-06-10T16:28:56;98812.72;;;29.25;40.74
4745;BME280;2386;42.138;24.746;2023-06-10T16:31:22;98806.72;;;29.23;42.11
4745;BME280;2386;42.138;24.746;2023-06-10T16:33:50;98810.63;;;29.19;42.75
4745;BME280;2386;42.138;24.746;2023-06-10T16:36:18;98822.88;;;29.10;42.55
4745;BME280;2386;42.138;24.746;2023-06-10T16:38:44;98811.63;;;29.07;43.54
4745;BME280;2386;42.138;24.746;2023-06-10T16:41:12;98811.09;;;28.98;42.88
4745;BME280;2386;42.138;24.746;2023-06-10T16:43:38;98826.28;;;29.00;43.79
4745;BME280;2386;42.138;24.746;2023-06-10T16:46:07;98823.41;;;28.93;44.69
4745;BME280;2386;42.138;24.746;2023-06-10T16:48:34;98830.41;;;28.84;43.43
4745;BME280;2386;42.138;24.746;2023-06-10T16:51:04;98835.25;;;28.87;43.68
4745;BME280;2386;42.138;24.746;2023-06-10T16:53:30;98820.94;;;28.69;44.41
4745;BME280;2386;42.138;24.746;2023-06-10T16:55:56;98830.84;;;28.66;44.94
4745;BME280;2386;42.138;24.746;2023-06-10T16:58:35;98833.44;;;28.56;45.45
4745;BME280;2386;42.138;24.746;2023-06-10T17:01:24;98819.59;;;28.40;45.15
4745;BME280;2386;42.138;24.746;2023-06-10T17:03:54;98817.09;;;28.35;45.39
4745;BME280;2386;42.138;24.746;2023-06-10T17:06:20;98822.38;;;28.40;44.91
4745;BME280;2386;42.138;24.746;2023-06-10T17:08:46;98833.47;;;28.36;45.70
4745;BME280;2386;42.138;24.746;2023-06-10T17:11:12;98835.75;;;28.31;46.27
4745;BME280;2386;42.138;24.746;2023-06-10T17:13:38;98840.44;;;28.27;46.22
4745;BME280;2386;42.138;24.746;2023-06-10T17:16:04;98849.47;;;28.20;46.97
4745;BME280;2386;42.138;24.746;2023-06-10T17:18:33;98842.94;;;28.12;47.02
4745;BME280;2386;42.138;24.746;2023-06-10T17:21:03;98843.22;;;28.07;47.45
4745;BME280;2386;42.138;24.746;2023-06-10T17:23:35;98837.56;;;28.04;47.02
4745;BME280;2386;42.138;24.746;2023-06-10T17:29:30;98840.94;;;27.94;48.11
4745;BME280;2386;42.138;24.746;2023-06-10T17:31:57;98849.44;;;27.81;48.59
4745;BME280;2386;42.138;24.746;2023-06-10T17:34:26;98844.94;;;27.77;48.94
4745;BME280;2386;42.138;24.746;2023-06-10T17:36:52;98833.91;;;27.65;49.37
4745;BME280;2386;42.138;24.746;2023-06-10T17:39:19;98843.09;;;27.65;49.81
4745;BME280;2386;42.138;24.746;2023-06-10T17:41:46;98846.03;;;27.57;50.63
4745;BME280;2386;42.138;24.746;2023-06-10T17:44:13;98854.97;;;27.46;51.39
4745;BME280;2386;42.138;24.746;2023-06-10T17:46:41;98840.78;;;27.36;51.70
4745;BME280;2386;42.138;24.746;2023-06-10T17:49:08;98851.13;;;27.35;52.10
